createdAt,value
2019-05-11T00:00:30.287Z,10.32
2019-05-11T00:05:34.729Z,10.03
2019-05-11T00:10:39.165Z,15.90
2019-05-11T00:15:43.525Z,13.70
2019-05-11T00:20:47.941Z,11.97
2019-05-11T00:25:52.387Z,13.25
2019-05-11T00:30:56.921Z,11.90
2019-05-11T00:36:01.790Z,14.73
2019-05-11T00:41:06.220Z,15.00
2019-05-11T00:46:10.614Z,15.10
2019-05-11T00:51:14.894Z,17.52
2019-05-11T00:56:19.323Z,12.47
2019-05-11T01:01:24.192Z,15.38
2019-05-11T01:06:28.481Z,14.38
2019-05-11T01:11:32.847Z,12.37
2019-05-11T01:16:37.118Z,14.50
2019-05-11T01:21:41.526Z,14.93
2019-05-11T01:26:45.961Z,15.55
2019-05-11T01:31:50.241Z,13.70
2019-05-11T01:36:54.494Z,18.85
2019-05-11T01:41:58.744Z,21.93
2019-05-11T01:47:02.984Z,19.35
2019-05-11T01:52:07.259Z,17.77
2019-05-11T01:57:11.676Z,17.15
2019-05-11T02:02:15.945Z,19.90
2019-05-11T02:07:20.349Z,18.55
2019-05-11T02:12:24.609Z,18.12
2019-05-11T02:17:29.001Z,15.38
2019-05-11T02:22:33.264Z,14.05
2019-05-11T02:27:37.696Z,13.98
2019-05-11T02:33:00.884Z,14.73
2019-05-11T02:38:05.232Z,18.20
2019-05-11T02:43:09.479Z,16.43
2019-05-11T02:48:13.728Z,13.27
2019-05-11T02:53:18.569Z,12.73
2019-05-11T02:58:22.796Z,14.20
2019-05-11T03:03:27.037Z,12.07
2019-05-11T03:08:31.266Z,14.47
2019-05-11T03:13:35.491Z,12.90
2019-05-11T03:18:39.721Z,12.05
2019-05-11T03:23:43.957Z,14.15
2019-05-11T03:28:48.189Z,16.03
2019-05-11T03:33:52.433Z,18.52
2019-05-11T03:38:56.680Z,24.67
2019-05-11T03:44:00.931Z,15.80
2019-05-11T03:49:05.179Z,23.77
2019-05-11T03:54:09.408Z,29.52
2019-05-11T03:59:13.653Z,52.98
2019-05-11T04:04:17.884Z,38.05
2019-05-11T04:09:22.129Z,31.65
2019-05-11T04:14:26.382Z,30.02
2019-05-11T04:19:30.719Z,22.40
2019-05-11T04:24:34.979Z,19.92
2019-05-11T04:29:39.440Z,15.65
2019-05-11T04:34:43.782Z,15.95
2019-05-11T04:39:48.169Z,12.43
2019-05-11T04:44:52.759Z,10.93
2019-05-11T04:49:57.158Z,10.63
2019-05-11T04:55:01.394Z,13.48
2019-05-11T05:00:06.469Z,9.18
2019-05-11T05:05:10.919Z,10.70
2019-05-11T05:10:19.854Z,9.70
2019-05-11T05:15:21.287Z,12.63
2019-05-11T05:20:25.532Z,11.43
2019-05-11T05:25:29.966Z,11.53
2019-05-11T05:30:34.505Z,9.68
2019-05-11T05:35:38.751Z,10.75
2019-05-11T05:40:42.992Z,11.28
2019-05-11T05:45:47.335Z,11.08
2019-05-11T05:50:51.567Z,8.68
2019-05-11T05:55:55.801Z,10.68
2019-05-11T06:01:00.136Z,10.25
2019-05-11T06:06:04.369Z,8.05
2019-05-11T06:11:08.648Z,11.22
2019-05-11T06:16:12.880Z,9.85
2019-05-11T06:21:17.106Z,9.63
2019-05-11T06:26:21.340Z,5.22
2019-05-11T06:31:25.587Z,9.23
2019-05-11T06:36:29.821Z,9.25
2019-05-11T06:41:34.227Z,5.92
2019-05-11T06:46:38.629Z,4.95
2019-05-11T06:51:42.857Z,4.95
2019-05-11T06:56:47.210Z,5.25
2019-05-11T07:01:51.546Z,8.20
2019-05-11T07:06:55.835Z,4.83
2019-05-11T07:12:00.131Z,5.92
2019-05-11T07:17:04.491Z,9.68
2019-05-11T07:22:08.723Z,5.50
2019-05-11T07:27:13.052Z,5.15
2019-05-11T07:32:25.108Z,6.70
2019-05-11T07:37:24.326Z,5.25
2019-05-11T07:42:28.861Z,6.65
2019-05-11T07:47:33.261Z,6.47
2019-05-11T07:52:37.972Z,7.03
2019-05-11T07:57:42.399Z,5.37
2019-05-11T08:02:48.030Z,4.87
2019-05-11T08:07:52.407Z,7.17
2019-05-11T08:12:58.749Z,5.83
2019-05-11T08:18:02.649Z,6.72
2019-05-11T08:23:08.986Z,10.18
2019-05-11T08:28:12.923Z,9.85
2019-05-11T08:33:18.155Z,6.50
2019-05-11T08:38:22.628Z,6.00
2019-05-11T08:43:28.521Z,8.15
2019-05-11T08:48:32.906Z,10.13
2019-05-11T08:53:38.700Z,5.17
2019-05-11T08:58:43.200Z,7.72
2019-05-11T09:03:48.027Z,6.42
2019-05-11T09:08:52.235Z,9.68
2019-05-11T09:13:57.872Z,8.35
2019-05-11T09:19:02.377Z,7.22
2019-05-11T09:24:08.412Z,4.17
2019-05-11T09:29:12.622Z,6.15
2019-05-11T09:34:18.078Z,5.50
2019-05-11T09:39:22.559Z,4.15
2019-05-11T09:44:28.798Z,8.93
2019-05-11T09:49:43.967Z,5.60
2019-05-11T09:54:38.768Z,6.50
2019-05-11T09:59:43.099Z,5.58
2019-05-11T10:04:48.401Z,5.22
2019-05-11T10:09:52.724Z,7.00
2019-05-11T10:14:59.085Z,8.03
2019-05-11T10:20:03.066Z,5.65
2019-05-11T10:25:08.998Z,4.03
2019-05-11T10:30:13.703Z,3.92
2019-05-11T10:35:18.537Z,14.28
2019-05-11T10:40:22.974Z,10.98
2019-05-11T10:45:28.561Z,3.45
2019-05-11T10:50:32.949Z,7.17
2019-05-11T10:55:38.621Z,6.20
2019-05-11T11:00:43.176Z,10.32
2019-05-11T11:05:48.788Z,7.50
2019-05-11T11:10:53.205Z,5.70
2019-05-11T11:15:59.020Z,5.28
2019-05-11T11:21:03.436Z,10.32
2019-05-11T11:26:08.328Z,9.25
2019-05-11T11:31:12.647Z,10.30
2019-05-11T11:36:17.962Z,8.68
2019-05-11T11:41:22.332Z,8.08
2019-05-11T11:46:27.800Z,8.03
2019-05-11T11:51:32.106Z,9.00
2019-05-11T11:56:38.004Z,6.12
2019-05-11T12:01:43.732Z,10.78
2019-05-11T12:06:49.094Z,8.20
2019-05-11T12:11:53.428Z,8.33
2019-05-11T12:17:06.988Z,9.10
2019-05-11T12:22:03.652Z,10.18
2019-05-11T12:27:07.894Z,4.65
2019-05-11T12:32:18.579Z,9.50
2019-05-11T12:37:22.920Z,9.20
2019-05-11T12:42:28.419Z,6.08
2019-05-11T12:47:32.700Z,8.75
2019-05-11T12:52:38.334Z,12.93
2019-05-11T12:57:42.695Z,12.10
2019-05-11T13:02:48.509Z,10.88
2019-05-11T13:07:52.998Z,10.05
2019-05-11T13:12:58.171Z,9.65
2019-05-11T13:18:02.592Z,13.90
2019-05-11T13:23:07.992Z,9.53
2019-05-11T13:28:12.466Z,4.87
2019-05-11T13:33:18.788Z,5.97
2019-05-11T13:38:22.805Z,9.45
2019-05-11T13:43:28.057Z,8.63
2019-05-11T13:48:32.598Z,9.53
2019-05-11T13:53:37.643Z,8.05
2019-05-11T13:58:42.498Z,6.05
2019-05-11T14:03:48.438Z,6.65
2019-05-11T14:08:52.720Z,5.12
2019-05-11T14:13:58.463Z,8.48
2019-05-11T14:19:02.817Z,8.73
2019-05-11T14:24:07.781Z,11.57
2019-05-11T14:29:12.307Z,34.70
2019-05-11T14:34:18.124Z,10.93
2019-05-11T14:39:23.109Z,8.45
2019-05-11T14:44:28.541Z,10.18
2019-05-11T14:49:33.002Z,13.93
2019-05-11T14:54:38.211Z,6.45
2019-05-11T14:59:42.680Z,9.20
2019-05-11T15:04:48.391Z,12.13
2019-05-11T15:09:52.795Z,11.90
2019-05-11T15:14:59.025Z,8.60
2019-05-11T15:20:03.047Z,9.75
2019-05-11T15:25:08.972Z,9.88
2019-05-11T15:30:14.959Z,10.85
2019-05-11T15:35:19.269Z,7.80
2019-05-11T15:40:23.908Z,37.90
2019-05-11T15:45:28.238Z,11.97
2019-05-11T15:50:32.474Z,7.28
2019-05-11T15:55:39.362Z,10.08
2019-05-11T16:00:42.703Z,7.85
2019-05-11T16:05:47.934Z,11.28
2019-05-11T16:10:52.299Z,9.15
2019-05-11T16:15:57.761Z,13.03
2019-05-11T16:21:02.315Z,9.60
2019-05-11T16:26:08.539Z,17.52
2019-05-11T16:31:12.525Z,11.10
2019-05-11T16:36:17.981Z,8.83
2019-05-11T16:41:22.486Z,14.87
2019-05-11T16:46:28.440Z,9.00
2019-05-11T16:51:32.862Z,12.10
2019-05-11T16:56:38.254Z,8.65
2019-05-11T17:01:42.788Z,10.48
2019-05-11T17:06:48.679Z,11.88
2019-05-11T17:11:53.138Z,11.38
2019-05-11T17:16:58.557Z,10.13
2019-05-11T17:22:02.931Z,7.92
2019-05-11T17:27:08.813Z,9.00
2019-05-11T17:32:17.761Z,17.92
2019-05-11T17:37:22.212Z,13.70
2019-05-11T17:42:26.499Z,9.68
2019-05-11T17:47:30.793Z,10.35
2019-05-11T17:52:35.105Z,16.32
2019-05-11T17:57:39.359Z,10.10
2019-05-11T18:02:43.650Z,9.78
2019-05-11T18:07:47.945Z,8.95
2019-05-11T18:12:52.340Z,9.75
2019-05-11T18:17:58.798Z,8.80
2019-05-11T18:23:03.112Z,14.80
2019-05-11T18:28:07.570Z,12.10
2019-05-11T18:33:12.010Z,13.38
2019-05-11T18:38:17.847Z,9.80
2019-05-11T18:43:22.257Z,13.98
2019-05-11T18:48:28.665Z,13.15
2019-05-11T18:53:32.609Z,12.07
2019-05-11T18:58:38.355Z,13.98
2019-05-11T19:03:42.809Z,11.78
2019-05-11T19:08:47.880Z,11.95
2019-05-11T19:13:53.286Z,16.60
2019-05-11T19:18:58.607Z,8.30
2019-05-11T19:24:06.032Z,11.65
2019-05-11T19:29:10.036Z,12.68
2019-05-11T19:34:14.516Z,9.48
2019-05-11T19:39:19.402Z,13.72
2019-05-11T19:44:23.941Z,14.50
2019-05-11T19:49:28.287Z,7.65
2019-05-11T19:54:32.588Z,10.70
2019-05-11T19:59:38.703Z,8.83
2019-05-11T20:04:43.260Z,17.07
2019-05-11T20:09:47.573Z,8.30
2019-05-11T20:14:51.845Z,8.78
2019-05-11T20:19:58.117Z,15.10
2019-05-11T20:25:02.258Z,7.55
2019-05-11T20:30:08.601Z,8.03
2019-05-11T20:35:13.544Z,7.37
2019-05-11T20:40:18.463Z,10.15
2019-05-11T20:45:23.017Z,13.30
2019-05-11T20:50:27.289Z,5.15
2019-05-11T20:55:31.542Z,9.23
2019-05-11T21:00:38.199Z,5.40
2019-05-11T21:05:41.980Z,3.83
2019-05-11T21:10:48.790Z,4.05
2019-05-11T21:15:52.426Z,2.80
2019-05-11T21:20:57.713Z,7.95
2019-05-11T21:26:02.138Z,2.22
2019-05-11T21:31:08.046Z,2.67
2019-05-11T21:36:12.538Z,6.62
2019-05-11T21:41:16.806Z,3.15
2019-05-11T21:46:21.069Z,10.55
2019-05-11T21:51:25.494Z,3.90
2019-05-11T21:56:29.946Z,2.67
2019-05-11T22:01:34.381Z,4.70
2019-05-11T22:06:39.209Z,3.95
2019-05-11T22:11:43.587Z,6.22
2019-05-11T22:16:48.077Z,6.62
2019-05-11T22:21:52.316Z,2.40
2019-05-11T22:26:57.487Z,6.20
2019-05-11T22:32:02.518Z,4.92
2019-05-11T22:37:08.654Z,3.65
2019-05-11T22:42:12.754Z,6.67
2019-05-11T22:47:17.811Z,6.77
2019-05-11T22:52:35.430Z,5.83
2019-05-11T22:57:28.277Z,4.10
2019-05-11T23:02:32.517Z,5.40
2019-05-11T23:07:37.673Z,5.17
2019-05-11T23:12:42.734Z,5.50
2019-05-11T23:17:46.972Z,5.05
2019-05-11T23:22:58.017Z,3.57
2019-05-11T23:27:58.811Z,4.40
2019-05-11T23:33:03.132Z,3.97
2019-05-11T23:38:07.374Z,4.93
2019-05-11T23:43:11.608Z,6.37
2019-05-11T23:48:15.835Z,6.10
2019-05-11T23:53:20.069Z,7.93
2019-05-11T23:58:24.287Z,8.00
